sensor_id;sensor_type;location;lat;lon;timestamp;pressure;altitude;pressure_sealevel;temperature;humidity
63343;BME280;49465;57.664;39.686;2024-03-02T00:00:19;101942.66;;;5.19;55.27
63343;BME280;49465;57.664;39.686;2024-03-02T00:02:50;101937.22;;;5.35;55.54
63343;BME280;49465;57.664;39.686;2024-03-02T00:05:20;101940.97;;;5.18;55.56
63343;BME280;49465;57.664;39.686;2024-03-02T00:07:57;101936.88;;;5.55;55.76
63343;BME280;49465;57.664;39.686;2024-03-02T00:10:35;101937.09;;;5.43;55.64
63343;BME280;49465;57.664;39.686;2024-03-02T00:13:09;101942.44;;;5.34;55.73
63343;BME280;49465;57.664;39.686;2024-03-02T00:16:07;101946.78;;;5.83;54.86
63343;BME280;49465;57.664;39.686;2024-03-02T00:18:41;101936.31;;;5.37;55.49
63343;BME280;49465;57.664;39.686;2024-03-02T00:21:13;101947.63;;;5.34;55.50
63343;BME280;49465;57.664;39.686;2024-03-02T00:23:45;101949.31;;;5.35;55.36
63343;BME280;49465;57.664;39.686;2024-03-02T00:26:19;101947.38;;;6.43;52.61
63343;BME280;49465;57.664;39.686;2024-03-02T00:28:54;101950.00;;;5.48;54.63
63343;BME280;49465;57.664;39.686;2024-03-02T00:31:26;101950.19;;;5.37;54.91
63343;BME280;49465;57.664;39.686;2024-03-02T00:33:55;101949.63;;;5.17;55.10
63343;BME280;49465;57.664;39.686;2024-03-02T00:36:27;101958.94;;;5.31;54.95
63343;BME280;49465;57.664;39.686;2024-03-02T00:39:03;101957.22;;;5.29;54.95
63343;BME280;49465;57.664;39.686;2024-03-02T00:41:36;101947.66;;;5.31;54.85
63343;BME280;49465;57.664;39.686;2024-03-02T00:44:15;101953.66;;;5.36;55.36
63343;BME280;49465;57.664;39.686;2024-03-02T00:46:49;101959.84;;;5.29;54.82
63343;BME280;49465;57.664;39.686;2024-03-02T00:49:29;101958.78;;;5.41;55.49
63343;BME280;49465;57.664;39.686;2024-03-02T00:51:59;101951.41;;;5.13;54.84
63343;BME280;49465;57.664;39.686;2024-03-02T00:54:30;101950.47;;;5.17;54.58
63343;BME280;49465;57.664;39.686;2024-03-02T00:57:05;101958.13;;;5.28;55.11
63343;BME280;49465;57.664;39.686;2024-03-02T00:59:34;101946.22;;;5.11;54.80
63343;BME280;49465;57.664;39.686;2024-03-02T01:02:07;101958.16;;;5.25;54.96
63343;BME280;49465;57.664;39.686;2024-03-02T01:04:41;101955.69;;;5.17;55.29
63343;BME280;49465;57.664;39.686;2024-03-02T01:07:10;101956.38;;;5.30;55.40
63343;BME280;49465;57.664;39.686;2024-03-02T01:09:45;101951.44;;;5.11;55.36
63343;BME280;49465;57.664;39.686;2024-03-02T01:12:15;101948.00;;;5.09;54.88
63343;BME280;49465;57.664;39.686;2024-03-02T01:14:47;101958.16;;;5.25;55.53
63343;BME280;49465;57.664;39.686;2024-03-02T01:17:17;101952.28;;;5.13;54.97
63343;BME280;49465;57.664;39.686;2024-03-02T01:19:49;101948.00;;;5.09;55.22
63343;BME280;49465;57.664;39.686;2024-03-02T01:22:18;101955.56;;;5.26;55.45
63343;BME280;49465;57.664;39.686;2024-03-02T01:24:53;101951.50;;;5.08;55.71
63343;BME280;49465;57.664;39.686;2024-03-02T01:27:22;101949.75;;;5.07;54.81
63343;BME280;49465;57.664;39.686;2024-03-02T01:29:57;101959.06;;;5.24;55.07
63343;BME280;49465;57.664;39.686;2024-03-02T01:32:32;101961.66;;;5.24;55.61
63343;BME280;49465;57.664;39.686;2024-03-02T01:35:01;101964.25;;;5.25;55.83
63343;BME280;49465;57.664;39.686;2024-03-02T01:37:31;101958.44;;;5.08;55.08
63343;BME280;49465;57.664;39.686;2024-03-02T01:40:06;101956.47;;;5.24;55.90
63343;BME280;49465;57.664;39.686;2024-03-02T01:42:50;101955.44;;;5.34;55.54
63343;BME280;49465;57.664;39.686;2024-03-02T01:45:20;101954.72;;;5.24;55.63
63343;BME280;49465;57.664;39.686;2024-03-02T01:47:52;101946.94;;;5.23;55.81
63343;BME280;49465;57.664;39.686;2024-03-02T01:50:47;101949.59;;;5.72;55.39
63343;BME280;49465;57.664;39.686;2024-03-02T01:53:16;101946.31;;;5.07;55.05
63343;BME280;49465;57.664;39.686;2024-03-02T01:55:52;101949.75;;;5.07;55.19
63343;BME280;49465;57.664;39.686;2024-03-02T01:58:24;101950.69;;;5.05;55.04
63343;BME280;49465;57.664;39.686;2024-03-02T02:00:54;101950.38;;;5.23;55.94
63343;BME280;49465;57.664;39.686;2024-03-02T02:03:27;101948.69;;;5.22;56.17
63343;BME280;49465;57.664;39.686;2024-03-02T02:05:59;101946.91;;;5.24;56.03
63343;BME280;49465;57.664;39.686;2024-03-02T02:08:36;101956.38;;;5.30;56.04
63343;BME280;49465;57.664;39.686;2024-03-02T02:11:05;101954.13;;;5.05;55.72
63343;BME280;49465;57.664;39.686;2024-03-02T02:13:42;101956.53;;;5.19;55.23
63343;BME280;49465;57.664;39.686;2024-03-02T02:16:14;101958.19;;;5.23;55.33
63343;BME280;49465;57.664;39.686;2024-03-02T02:18:46;101953.25;;;5.06;54.93
63343;BME280;49465;57.664;39.686;2024-03-02T02:21:26;101959.94;;;5.23;55.90
63343;BME280;49465;57.664;39.686;2024-03-02T02:24:01;101953.69;;;5.33;55.92
63343;BME280;49465;57.664;39.686;2024-03-02T02:26:29;101950.22;;;6.32;53.08
63343;BME280;49465;57.664;39.686;2024-03-02T02:29:01;101952.97;;;5.25;54.87
63343;BME280;49465;57.664;39.686;2024-03-02T02:31:42;101953.31;;;5.58;55.11
63343;BME280;49465;57.664;39.686;2024-03-02T02:34:26;101958.97;;;5.30;54.99
63343;BME280;49465;57.664;39.686;2024-03-02T02:36:55;101958.13;;;5.28;55.71
63343;BME280;49465;57.664;39.686;2024-03-02T02:39:30;101961.66;;;5.24;55.89
63343;BME280;49465;57.664;39.686;2024-03-02T02:41:57;101955.88;;;5.06;55.51
63343;BME280;49465;57.664;39.686;2024-03-02T02:44:38;101961.78;;;5.18;56.21
63343;BME280;49465;57.664;39.686;2024-03-02T02:47:07;101957.53;;;5.10;56.32
63343;BME280;49465;57.664;39.686;2024-03-02T02:49:41;101963.50;;;5.17;55.89
63343;BME280;49465;57.664;39.686;2024-03-02T02:52:15;101955.63;;;6.21;53.88
63343;BME280;49465;57.664;39.686;2024-03-02T02:54:47;101961.69;;;5.21;54.98
63343;BME280;49465;57.664;39.686;2024-03-02T02:57:22;101961.09;;;5.03;55.68
63343;BME280;49465;57.664;39.686;2024-03-02T02:59:49;101962.00;;;5.02;55.84
63343;BME280;49465;57.664;39.686;2024-03-02T03:02:21;101972.22;;;5.13;55.86
63343;BME280;49465;57.664;39.686;2024-03-02T03:04:53;101969.59;;;5.14;55.65
63343;BME280;49465;57.664;39.686;2024-03-02T03:07:28;101974.78;;;5.16;55.40
63343;BME280;49465;57.664;39.686;2024-03-02T03:10:02;101976.44;;;5.22;55.16
63343;BME280;49465;57.664;39.686;2024-03-02T03:12:30;101969.78;;;5.04;54.93
63343;BME280;49465;57.664;39.686;2024-03-02T03:15:00;101967.19;;;5.02;55.07
63343;BME280;49465;57.664;39.686;2024-03-02T03:17:29;101968.97;;;5.00;55.19
63343;BME280;49465;57.664;39.686;2024-03-02T03:20:16;101979.06;;;5.20;55.65
63343;BME280;49465;57.664;39.686;2024-03-02T03:22:45;101984.28;;;5.19;55.04
63343;BME280;49465;57.664;39.686;2024-03-02T03:25:14;101981.91;;;5.02;54.95
63343;BME280;49465;57.664;39.686;2024-03-02T03:27:45;101989.47;;;5.19;55.43
63343;BME280;49465;57.664;39.686;2024-03-02T03:30:19;101988.63;;;5.17;55.92
63343;BME280;49465;57.664;39.686;2024-03-02T03:32:48;101984.47;;;5.05;55.16
63343;BME280;49465;57.664;39.686;2024-03-02T03:35:22;101980.94;;;5.10;55.48
63343;BME280;49465;57.664;39.686;2024-03-02T03:37:53;101985.28;;;5.10;56.01
63343;BME280;49465;57.664;39.686;2024-03-02T03:40:22;101992.34;;;5.00;55.03
63343;BME280;49465;57.664;39.686;2024-03-02T03:42:54;101988.94;;;4.97;55.41
63343;BME280;49465;57.664;39.686;2024-03-02T03:45:27;101997.41;;;5.09;55.43
63343;BME280;49465;57.664;39.686;2024-03-02T03:48:05;101991.13;;;5.26;55.39
63343;BME280;49465;57.664;39.686;2024-03-02T03:50:35;101988.03;;;4.99;55.44
63343;BME280;49465;57.664;39.686;2024-03-02T03:53:11;101995.59;;;5.16;56.01
63343;BME280;49465;57.664;39.686;2024-03-02T03:55:43;101994.97;;;4.99;55.15
63343;BME280;49465;57.664;39.686;2024-03-02T03:58:17;101998.22;;;5.11;55.88
63343;BME280;49465;57.664;39.686;2024-03-02T04:00:52;101996.53;;;5.12;55.54
63343;BME280;49465;57.664;39.686;2024-03-02T04:03:24;101991.31;;;5.12;56.07
63343;BME280;49465;57.664;39.686;2024-03-02T04:05:56;101993.22;;;4.98;55.86
63343;BME280;49465;57.664;39.686;2024-03-02T04:08:28;101989.78;;;4.97;55.24
63343;BME280;49465;57.664;39.686;2024-03-02T04:11:00;101990.69;;;4.96;55.87
63343;BME280;49465;57.664;39.686;2024-03-02T04:13:34;101993.09;;;5.10;55.39
63343;BME280;49465;57.664;39.686;2024-03-02T04:16:09;101993.03;;;5.11;55.89
63343;BME280;49465;57.664;39.686;2024-03-02T04:18:44;101993.03;;;5.11;55.13
63343;BME280;49465;57.664;39.686;2024-03-02T04:21:19;101994.56;;;5.25;55.55
63343;BME280;49465;57.664;39.686;2024-03-02T04:23:51;101993.28;;;4.96;54.97
63343;BME280;49465;57.664;39.686;2024-03-02T04:26:29;101995.59;;;5.14;55.70
63343;BME280;49465;57.664;39.686;2024-03-02T04:28:59;101995.03;;;4.94;55.85
63343;BME280;49465;57.664;39.686;2024-03-02T04:31:36;101999.16;;;5.09;55.68
63343;BME280;49465;57.664;39.686;2024-03-02T04:34:09;102000.19;;;4.95;55.12
63343;BME280;49465;57.664;39.686;2024-03-02T04:36:40;101990.44;;;5.11;55.78
63343;BME280;49465;57.664;39.686;2024-03-02T04:39:12;101995.69;;;5.10;55.48
63343;BME280;49465;57.664;39.686;2024-03-02T04:41:41;102000.28;;;4.91;55.62
63343;BME280;49465;57.664;39.686;2024-03-02T04:44:19;102001.75;;;5.07;54.89
63343;BME280;49465;57.664;39.686;2024-03-02T04:46:48;102003.44;;;6.20;53.05
63343;BME280;49465;57.664;39.686;2024-03-02T04:49:19;102003.41;;;5.13;54.25
63343;BME280;49465;57.664;39.686;2024-03-02T04:51:48;102006.00;;;5.16;54.65
63343;BME280;49465;57.664;39.686;2024-03-02T04:54:20;101999.13;;;5.10;54.85
63343;BME280;49465;57.664;39.686;2024-03-02T04:56:49;101997.63;;;4.94;54.69
63343;BME280;49465;57.664;39.686;2024-03-02T04:59:24;102001.75;;;5.09;55.13
63343;BME280;49465;57.664;39.686;2024-03-02T05:01:56;102010.41;;;5.09;54.87
63343;BME280;49465;57.664;39.686;2024-03-02T05:04:35;102008.69;;;5.10;55.29
63343;BME280;49465;57.664;39.686;2024-03-02T05:07:16;102010.03;;;5.37;54.90
63343;BME280;49465;57.664;39.686;2024-03-02T05:09:51;102010.38;;;5.12;55.31
63343;BME280;49465;57.664;39.686;2024-03-02T05:12:32;102007.78;;;5.11;55.10
63343;BME280;49465;57.664;39.686;2024-03-02T05:15:17;102017.22;;;5.18;54.76
63343;BME280;49465;57.664;39.686;2024-03-02T05:17:58;102016.38;;;5.18;55.50
63343;BME280;49465;57.664;39.686;2024-03-02T05:20:36;102008.78;;;5.02;55.01
63343;BME280;49465;57.664;39.686;2024-03-02T05:23:08;102016.50;;;5.07;54.54
63343;BME280;49465;57.664;39.686;2024-03-02T05:25:42;102019.09;;;5.10;54.25
63343;BME280;49465;57.664;39.686;2024-03-02T05:28:18;102016.50;;;5.07;54.91
63343;BME280;49465;57.664;39.686;2024-03-02T05:30:49;102013.06;;;5.08;54.70
63343;BME280;49465;57.664;39.686;2024-03-02T05:33:24;102022.53;;;5.10;54.92
63343;BME280;49465;57.664;39.686;2024-03-02T05:36:02;102025.13;;;5.12;54.11
63343;BME280;49465;57.664;39.686;2024-03-02T05:38:38;102023.28;;;5.17;54.38
63343;BME280;49465;57.664;39.686;2024-03-02T05:41:25;102019.22;;;4.99;54.06
63343;BME280;49465;57.664;39.686;2024-03-02T05:43:55;102010.56;;;4.97;53.89
63343;BME280;49465;57.664;39.686;2024-03-02T05:46:31;102015.53;;;5.15;54.05
63343;BME280;49465;57.664;39.686;2024-03-02T05:49:03;102013.09;;;5.02;54.56
63343;BME280;49465;57.664;39.686;2024-03-02T05:51:29;102009.72;;;4.97;53.85
63343;BME280;49465;57.664;39.686;2024-03-02T05:53:59;102016.63;;;4.98;54.02
63343;BME280;49465;57.664;39.686;2024-03-02T05:56:29;102018.38;;;4.97;53.84
63343;BME280;49465;57.664;39.686;2024-03-02T05:59:03;102015.75;;;5.00;53.96
63343;BME280;49465;57.664;39.686;2024-03-02T06:01:48;102025.56;;;5.40;53.73
63343;BME280;49465;57.664;39.686;2024-03-02T06:04:26;102030.91;;;5.31;53.51
63343;BME280;49465;57.664;39.686;2024-03-02T06:06:58;102035.63;;;5.04;53.62
63343;BME280;49465;57.664;39.686;2024-03-02T06:09:27;102033.03;;;5.04;53.28
63343;BME280;49465;57.664;39.686;2024-03-02T06:12:07;102042.31;;;5.21;53.38
63343;BME280;49465;57.664;39.686;2024-03-02T06:14:42;102036.19;;;5.25;53.25
63343;BME280;49465;57.664;39.686;2024-03-02T06:17:19;102041.41;;;5.25;53.77
63343;BME280;49465;57.664;39.686;2024-03-02T06:19:56;102042.28;;;5.24;53.79
63343;BME280;49465;57.664;39.686;2024-03-02T06:22:34;102041.41;;;5.25;53.27
63343;BME280;49465;57.664;39.686;2024-03-02T06:25:19;102027.34;;;5.38;53.54
63343;BME280;49465;57.664;39.686;2024-03-02T06:27:59;102037.53;;;5.52;52.75
63343;BME280;49465;57.664;39.686;2024-03-02T06:30:28;102030.13;;;5.26;52.93
63343;BME280;49465;57.664;39.686;2024-03-02T06:33:01;102034.41;;;5.30;52.71
63343;BME280;49465;57.664;39.686;2024-03-02T06:35:46;102027.91;;;5.57;52.48
63343;BME280;49465;57.664;39.686;2024-03-02T06:38:22;102027.38;;;5.35;53.13
63343;BME280;49465;57.664;39.686;2024-03-02T06:40:54;102023.28;;;5.17;52.48
63343;BME280;49465;57.664;39.686;2024-03-02T06:43:40;102031.69;;;5.36;52.32
63343;BME280;49465;57.664;39.686;2024-03-02T06:46:21;102032.56;;;5.37;52.92
63343;BME280;49465;57.664;39.686;2024-03-02T06:48:56;102038.59;;;5.39;52.07
63343;BME280;49465;57.664;39.686;2024-03-02T06:51:34;102036.00;;;5.39;52.34
63343;BME280;49465;57.664;39.686;2024-03-02T06:54:10;102041.75;;;5.59;51.86
63343;BME280;49465;57.664;39.686;2024-03-02T06:56:42;102030.78;;;5.40;52.88
63343;BME280;49465;57.664;39.686;2024-03-02T06:59:14;102035.09;;;5.41;52.97
63343;BME280;49465;57.664;39.686;2024-03-02T07:01:43;102031.88;;;5.25;51.83
63343;BME280;49465;57.664;39.686;2024-03-02T07:04:15;102028.34;;;5.29;52.14
63343;BME280;49465;57.664;39.686;2024-03-02T07:06:54;102035.25;;;5.30;51.68
63343;BME280;49465;57.664;39.686;2024-03-02T07:09:29;102032.19;;;5.61;51.81
63343;BME280;49465;57.664;39.686;2024-03-02T07:11:58;102037.78;;;5.35;51.71
63343;BME280;49465;57.664;39.686;2024-03-02T07:14:32;102023.88;;;5.38;51.79
63343;BME280;49465;57.664;39.686;2024-03-02T07:17:20;102038.34;;;5.54;50.98
63343;BME280;49465;57.664;39.686;2024-03-02T07:19:52;102045.28;;;5.55;51.71
63343;BME280;49465;57.664;39.686;2024-03-02T07:22:22;102040.97;;;5.52;51.42
63343;BME280;49465;57.664;39.686;2024-03-02T07:24:56;102032.25;;;5.57;51.86
63343;BME280;49465;57.664;39.686;2024-03-02T07:27:28;102034.81;;;5.60;52.20
63343;BME280;49465;57.664;39.686;2024-03-02T07:30:03;102039.22;;;5.54;51.31
63343;BME280;49465;57.664;39.686;2024-03-02T07:32:40;102033.72;;;5.74;51.69
63343;BME280;49465;57.664;39.686;2024-03-02T07:35:16;102039.06;;;5.64;51.60
63343;BME280;49465;57.664;39.686;2024-03-02T07:37:51;102039.91;;;5.66;51.29
63343;BME280;49465;57.664;39.686;2024-03-02T07:40:30;102030.56;;;5.52;51.37
63343;BME280;49465;57.664;39.686;2024-03-02T07:43:02;102024.28;;;5.67;51.02
63343;BME280;49465;57.664;39.686;2024-03-02T07:45:29;102019.31;;;5.52;51.52
63343;BME280;49465;57.664;39.686;2024-03-02T07:47:56;102019.28;;;5.53;51.83
63343;BME280;49465;57.664;39.686;2024-03-02T07:50:28;102009.69;;;5.59;51.72
63343;BME280;49465;57.664;39.686;2024-03-02T07:53:02;102018.97;;;5.73;52.28
63343;BME280;49465;57.664;39.686;2024-03-02T07:55:33;102008.63;;;5.70;51.52
63343;BME280;49465;57.664;39.686;2024-03-02T07:58:08;102005.72;;;5.87;51.67
63343;BME280;49465;57.664;39.686;2024-03-02T08:00:39;102008.38;;;5.84;51.34
63343;BME280;49465;57.664;39.686;2024-03-02T08:03:11;102010.91;;;5.89;51.79
63343;BME280;49465;57.664;39.686;2024-03-02T08:05:41;102006.75;;;5.79;51.96
63343;BME280;49465;57.664;39.686;2024-03-02T08:08:19;102016.00;;;5.97;52.09
63343;BME280;49465;57.664;39.686;2024-03-02T08:10:52;102021.16;;;6.00;51.69
63343;BME280;49465;57.664;39.686;2024-03-02T08:13:32;102022.50;;;6.22;52.12
63343;BME280;49465;57.664;39.686;2024-03-02T08:16:12;102017.53;;;6.08;51.75
63343;BME280;49465;57.664;39.686;2024-03-02T08:18:47;102023.59;;;6.09;51.62
63343;BME280;49465;57.664;39.686;2024-03-02T08:21:19;102028.13;;;5.98;51.24
63343;BME280;49465;57.664;39.686;2024-03-02T08:23:49;102027.19;;;6.02;51.94
63343;BME280;49465;57.664;39.686;2024-03-02T08:26:20;102021.69;;;6.17;50.87
63343;BME280;49465;57.664;39.686;2024-03-02T08:28:50;102028.81;;;6.07;50.93
63343;BME280;49465;57.664;39.686;2024-03-02T08:31:25;102031.13;;;6.24;50.10
63343;BME280;49465;57.664;39.686;2024-03-02T08:33:53;102020.94;;;6.12;50.72
63343;BME280;49465;57.664;39.686;2024-03-02T08:36:28;102031.97;;;6.26;51.29
63343;BME280;49465;57.664;39.686;2024-03-02T08:38:55;102031.28;;;6.15;50.28
63343;BME280;49465;57.664;39.686;2024-03-02T08:41:30;102030.41;;;6.18;50.37
63343;BME280;49465;57.664;39.686;2024-03-02T08:44:05;102031.78;;;6.36;50.41
63343;BME280;49465;57.664;39.686;2024-03-02T08:46:40;102035.97;;;6.43;50.44
63343;BME280;49465;57.664;39.686;2024-03-02T08:49:09;102034.28;;;6.42;49.92
63343;BME280;49465;57.664;39.686;2024-03-02T08:51:41;102033.63;;;6.29;50.20
63343;BME280;49465;57.664;39.686;2024-03-02T08:54:16;102032.78;;;6.30;49.94
63343;BME280;49465;57.664;39.686;2024-03-02T08:56:48;102033.56;;;6.33;50.36
63343;BME280;49465;57.664;39.686;2024-03-02T08:59:18;102031.66;;;6.43;50.17
63343;BME280;49465;57.664;39.686;2024-03-02T09:01:50;102022.75;;;6.53;50.39
63343;BME280;49465;57.664;39.686;2024-03-02T09:04:19;102031.28;;;6.60;50.35
63343;BME280;49465;57.664;39.686;2024-03-02T09:06:58;102032.09;;;6.64;50.03
63343;BME280;49465;57.664;39.686;2024-03-02T09:09:32;102030.25;;;6.70;50.17
63343;BME280;49465;57.664;39.686;2024-03-02T09:12:07;102026.69;;;6.75;49.46
63343;BME280;49465;57.664;39.686;2024-03-02T09:14:45;102024.91;;;6.77;49.26
63343;BME280;49465;57.664;39.686;2024-03-02T09:17:21;102030.91;;;6.80;49.16
63343;BME280;49465;57.664;39.686;2024-03-02T09:19:53;102033.78;;;6.66;49.48
63343;BME280;49465;57.664;39.686;2024-03-02T09:22:30;102022.88;;;6.89;49.42
63343;BME280;49465;57.664;39.686;2024-03-02T09:25:10;102017.53;;;6.96;48.49
63343;BME280;49465;57.664;39.686;2024-03-02T09:27:45;102026.22;;;6.96;49.93
63343;BME280;49465;57.664;39.686;2024-03-02T09:30:16;102024.63;;;6.89;50.45
63343;BME280;49465;57.664;39.686;2024-03-02T09:33:00;102031.50;;;6.93;49.52
63343;BME280;49465;57.664;39.686;2024-03-02T09:35:37;102021.84;;;6.98;49.42
63343;BME280;49465;57.664;39.686;2024-03-02T09:38:06;102026.41;;;6.87;50.36
63343;BME280;49465;57.664;39.686;2024-03-02T09:40:38;102021.34;;;6.81;50.05
63343;BME280;49465;57.664;39.686;2024-03-02T09:43:07;102021.19;;;6.87;50.37
63343;BME280;49465;57.664;39.686;2024-03-02T09:45:39;102022.06;;;6.86;50.16
63343;BME280;49465;57.664;39.686;2024-03-02T09:48:18;102033.44;;;7.24;50.21
63343;BME280;49465;57.664;39.686;2024-03-02T09:50:53;102032.69;;;7.17;49.54
63343;BME280;49465;57.664;39.686;2024-03-02T09:53:33;102030.34;;;7.06;49.35
63343;BME280;49465;57.664;39.686;2024-03-02T09:56:20;102028.28;;;7.21;49.63
63343;BME280;49465;57.664;39.686;2024-03-02T09:58:57;102026.44;;;7.26;49.52
63343;BME280;49465;57.664;39.686;2024-03-02T10:01:29;102037.91;;;7.19;49.36
63343;BME280;49465;57.664;39.686;2024-03-02T10:04:09;102032.16;;;7.42;49.15
63343;BME280;49465;57.664;39.686;2024-03-02T10:06:47;102033.03;;;7.41;49.36
63343;BME280;49465;57.664;39.686;2024-03-02T10:09:30;102030.16;;;7.53;49.46
63343;BME280;49465;57.664;39.686;2024-03-02T10:12:08;102027.06;;;7.37;48.93
63343;BME280;49465;57.664;39.686;2024-03-02T10:14:44;102025.38;;;7.33;49.65
63343;BME280;49465;57.664;39.686;2024-03-02T10:17:22;102029.78;;;7.31;49.80
63343;BME280;49465;57.664;39.686;2024-03-02T10:19:57;102024.03;;;7.17;49.44
63343;BME280;49465;57.664;39.686;2024-03-02T10:22:37;102034.13;;;7.32;49.48
63343;BME280;49465;57.664;39.686;2024-03-02T10:25:30;102032.19;;;7.76;49.25
63343;BME280;49465;57.664;39.686;2024-03-02T10:28:03;102031.19;;;7.46;49.57
63343;BME280;49465;57.664;39.686;2024-03-02T10:30:33;102027.09;;;7.34;49.36
63343;BME280;49465;57.664;39.686;2024-03-02T10:33:05;102017.56;;;7.33;49.28
63343;BME280;49465;57.664;39.686;2024-03-02T10:35:47;102026.63;;;7.54;48.87
63343;BME280;49465;57.664;39.686;2024-03-02T10:38:18;102023.53;;;7.38;49.19
63343;BME280;49465;57.664;39.686;2024-03-02T10:40:49;102036.34;;;7.49;49.21
63343;BME280;49465;57.664;39.686;2024-03-02T10:43:26;102035.31;;;7.55;48.69
63343;BME280;49465;57.664;39.686;2024-03-02T10:45:58;102035.25;;;7.58;49.32
63343;BME280;49465;57.664;39.686;2024-03-02T10:48:32;102043.88;;;7.61;48.87
63343;BME280;49465;57.664;39.686;2024-03-02T10:51:11;102037.34;;;7.79;49.48
63343;BME280;49465;57.664;39.686;2024-03-02T10:53:41;102032.94;;;7.45;48.59
63343;BME280;49465;57.664;39.686;2024-03-02T10:56:22;102035.75;;;7.72;49.18
63343;BME280;49465;57.664;39.686;2024-03-02T10:59:01;102040.16;;;7.70;49.07
63343;BME280;49465;57.664;39.686;2024-03-02T11:01:32;102038.53;;;7.66;48.59
63343;BME280;49465;57.664;39.686;2024-03-02T11:04:05;102030.00;;;7.59;48.51
63343;BME280;49465;57.664;39.686;2024-03-02T11:06:36;102028.44;;;7.50;48.68
63343;BME280;49465;57.664;39.686;2024-03-02T11:09:11;102030.66;;;7.67;48.74
63343;BME280;49465;57.664;39.686;2024-03-02T11:11:50;102035.91;;;7.66;48.59
63343;BME280;49465;57.664;39.686;2024-03-02T11:14:33;102033.03;;;7.78;49.16
63343;BME280;49465;57.664;39.686;2024-03-02T11:17:04;102032.44;;;7.67;48.24
63343;BME280;49465;57.664;39.686;2024-03-02T11:19:32;102035.59;;;7.42;48.01
63343;BME280;49465;57.664;39.686;2024-03-02T11:22:08;102035.31;;;7.55;48.27
63343;BME280;49465;57.664;39.686;2024-03-02T11:24:51;102031.28;;;7.77;48.54
63343;BME280;49465;57.664;39.686;2024-03-02T11:33:14;102029.81;;;7.67;48.34
63343;BME280;49465;57.664;39.686;2024-03-02T11:35:45;102031.97;;;7.49;48.69
63343;BME280;49465;57.664;39.686;2024-03-02T11:38:18;102026.38;;;7.65;48.34
63343;BME280;49465;57.664;39.686;2024-03-02T11:41:05;102033.09;;;7.75;47.95
63343;BME280;49465;57.664;39.686;2024-03-02T11:43:46;102033.09;;;7.75;47.82
63343;BME280;49465;57.664;39.686;2024-03-02T11:46:23;102022.19;;;7.58;48.05
63343;BME280;49465;57.664;39.686;2024-03-02T11:48:55;102026.91;;;7.43;48.05
63343;BME280;49465;57.664;39.686;2024-03-02T11:51:27;102031.81;;;7.56;48.07
63343;BME280;49465;57.664;39.686;2024-03-02T11:54:04;102032.59;;;7.61;48.22
63343;BME280;49465;57.664;39.686;2024-03-02T11:56:47;102036.81;;;7.66;48.25
63343;BME280;49465;57.664;39.686;2024-03-02T11:59:26;102034.75;;;7.42;48.44
63343;BME280;49465;57.664;39.686;2024-03-02T12:02:13;102040.59;;;7.53;48.04
63343;BME280;49465;57.664;39.686;2024-03-02T12:04:47;102034.44;;;7.56;48.61
63343;BME280;49465;57.664;39.686;2024-03-02T12:07:21;102036.09;;;7.58;48.46
63343;BME280;49465;57.664;39.686;2024-03-02T12:10:05;102031.44;;;7.72;48.49
63343;BME280;49465;57.664;39.686;2024-03-02T12:12:39;102039.84;;;7.48;48.72
63343;BME280;49465;57.664;39.686;2024-03-02T12:15:10;102041.09;;;7.31;48.82
63343;BME280;49465;57.664;39.686;2024-03-02T12:17:53;102037.31;;;7.45;49.13
63343;BME280;49465;57.664;39.686;2024-03-02T12:20:30;102036.72;;;7.32;48.91
63343;BME280;49465;57.664;39.686;2024-03-02T12:23:04;102041.38;;;7.57;49.24
63343;BME280;49465;57.664;39.686;2024-03-02T12:25:36;102035.56;;;7.45;48.98
63343;BME280;49465;57.664;39.686;2024-03-02T12:28:15;102037.34;;;7.43;48.99
63343;BME280;49465;57.664;39.686;2024-03-02T12:30:52;102032.19;;;7.40;48.79
63343;BME280;49465;57.664;39.686;2024-03-02T12:33:27;102044.41;;;7.38;49.10
63343;BME280;49465;57.664;39.686;2024-03-02T12:35:56;102040.41;;;7.23;49.03
63343;BME280;49465;57.664;39.686;2024-03-02T12:38:33;102040.19;;;7.32;49.21
63343;BME280;49465;57.664;39.686;2024-03-02T12:41:08;102042.25;;;7.18;49.29
63343;BME280;49465;57.664;39.686;2024-03-02T12:43:41;102040.94;;;7.38;49.52
63343;BME280;49465;57.664;39.686;2024-03-02T12:46:16;102042.75;;;7.34;49.23
63343;BME280;49465;57.664;39.686;2024-03-02T12:48:53;102047.88;;;7.39;49.27
63343;BME280;49465;57.664;39.686;2024-03-02T12:51:28;102040.28;;;7.29;49.50
63343;BME280;49465;57.664;39.686;2024-03-02T12:54:00;102041.19;;;7.27;49.32
63343;BME280;49465;57.664;39.686;2024-03-02T12:56:36;102042.09;;;7.26;49.44
63343;BME280;49465;57.664;39.686;2024-03-02T12:59:23;102038.72;;;7.21;49.42
63343;BME280;49465;57.664;39.686;2024-03-02T13:01:59;102042.75;;;7.34;49.48
63343;BME280;49465;57.664;39.686;2024-03-02T13:04:35;102036.19;;;7.18;49.38
63343;BME280;49465;57.664;39.686;2024-03-02T13:07:15;102043.09;;;7.19;49.53
63343;BME280;49465;57.664;39.686;2024-03-02T13:09:45;102035.69;;;7.00;49.80
63343;BME280;49465;57.664;39.686;2024-03-02T13:12:17;102041.44;;;7.16;49.79
63343;BME280;49465;57.664;39.686;2024-03-02T13:14:57;102043.28;;;7.11;49.92
63343;BME280;49465;57.664;39.686;2024-03-02T13:17:29;102038.47;;;6.92;49.88
63343;BME280;49465;57.664;39.686;2024-03-02T13:20:15;102034.94;;;7.34;49.75
63343;BME280;49465;57.664;39.686;2024-03-02T13:22:52;102039.03;;;7.07;49.78
63343;BME280;49465;57.664;39.686;2024-03-02T13:25:27;102039.09;;;7.04;50.37
63343;BME280;49465;57.664;39.686;2024-03-02T13:27:56;102040.47;;;6.80;50.49
63343;BME280;49465;57.664;39.686;2024-03-02T13:30:34;102037.56;;;6.93;50.52
63343;BME280;49465;57.664;39.686;2024-03-02T13:33:08;102028.88;;;6.93;50.19